CST,Max TemperatureF,Mean TemperatureF,Min TemperatureF,Max Dew PointF,MeanDew PointF,Min DewpointF,Max Humidity, Mean Humidity, Min Humidity, Max Sea Level PressureIn, Mean Sea Level PressureIn, Min Sea Level PressureIn, Max VisibilityMiles, Mean VisibilityMiles, Min VisibilityMiles, Max Wind SpeedMPH, Mean Wind SpeedMPH, Max Gust SpeedMPH,PrecipitationIn, CloudCover, Events, WindDirDegrees
2014-2-1,10,0,-9,7,0,-13,92,79,66,30.18,29.97,29.82,10,10,7,21,10,25,0.00,3,Snow,265
2014-2-2,10,-2,-13,3,-5,-18,92,81,67,30.20,30.16,30.08,10,10,10,12,6,,0.00,1,,207
2014-2-3,14,4,-5,7,-1,-9,92,80,62,30.32,30.20,30.08,10,10,5,10,5,,0.00,1,,281
2014-2-4,6,0,-7,1,-10,-15,85,68,51,30.51,30.44,30.33,10,10,10,17,8,22,0.00,1,,330
2014-2-5,1,-5,-11,-8,-11,-17,84,75,65,30.54,30.50,30.45,10,8,2,17,10,22,0.00,1,Snow,302
2014-2-6,1,-8,-16,-4,-11,-20,92,80,66,30.44,30.28,30.13,10,10,5,20,11,24,0.00,2,,254
2014-2-7,10,-2,-13,-2,-10,-18,85,71,52,30.12,30.07,30.04,10,10,10,20,11,22,0.00,0,,223
2014-2-8,12,0,-13,5,-5,-18,92,81,67,30.18,30.07,30.02,10,9,2,10,3,,0.00,1,Snow,284
2014-2-9,0,-7,-14,-8,-13,-18,84,76,66,30.37,30.29,30.19,10,10,7,18,10,22,0.00,0,,297
2014-2-10,1,-10,-20,-8,-16,-26,84,76,60,30.44,30.41,30.38,10,10,10,10,6,,0.00,0,,270
2014-2-11,17,0,-16,16,-1,-20,93,84,73,30.38,30.11,29.91,10,8,1,26,10,37,0.00,4,Snow,167
2014-2-12,17,9,1,16,5,-4,93,79,62,30.10,29.95,29.58,10,9,2,25,8,30,0.00,2,Snow,258
2014-2-13,30,14,-2,27,6,-6,100,84,72,29.77,29.58,29.35,10,5,0,34,22,44,0.00,4,Snow,274
2014-2-14,6,0,-7,0,-6,-11,92,79,67,30.01,29.93,29.76,10,10,7,14,9,,0.00,0,,301
2014-2-15,23,8,-7,18,7,-9,93,82,68,30.08,29.84,29.70,10,10,7,18,7,23,0.00,4,Snow,138
2014-2-16,17,6,-4,14,4,-8,92,81,68,30.17,30.03,29.80,10,9,2,26,10,32,0.00,3,Snow,101
2014-2-17,30,24,17,25,20,14,100,89,74,29.79,29.69,29.63,10,6,0,25,15,33,0.02,2,Snow,199
2014-2-18,37,28,19,27,22,16,100,81,65,29.77,29.61,29.50,10,10,10,16,9,,0.00,0,,249
2014-2-19,39,24,10,30,23,7,100,85,65,29.78,29.68,29.53,10,8,0,29,10,36,0.00,2,Fog-Snow,186
2014-2-20,35,22,8,32,24,7,100,89,75,29.56,29.52,29.46,10,6,0,32,13,40,0.00,5,Rain-Snow,285
2014-2-21,12,6,0,7,1,-6,85,81,72,29.77,29.59,29.46,10,5,1,32,24,40,0.00,5,Snow,285
2014-2-22,10,5,0,1,-2,-6,85,76,67,30.12,29.95,29.78,10,10,10,23,16,29,0.00,0,,283
2014-2-23,12,6,0,5,-1,-6,85,77,67,30.27,30.21,30.13,10,10,10,23,14,28,0.00,0,,282
2014-2-24,5,-1,-7,-2,-8,-13,85,76,61,30.33,30.29,30.26,10,9,2,17,13,17,0.00,0,Snow,292
2014-2-25,0,-6,-11,-9,-13,-17,84,74,66,30.35,30.30,30.25,10,10,5,26,14,33,0.00,0,,288
2014-2-26,17,2,-14,9,-8,-20,84,71,53,30.29,29.89,29.63,10,8,0,36,17,43,0.00,1,Snow,277
2014-2-27,0,-10,-20,-17,-22,-27,70,57,39,30.15,30.06,29.93,10,10,10,23,10,29,0.00,1,,315
2014-2-28,14,2,-9,7,-7,-18,79,70,65,30.21,29.91,29.79,10,10,7,22,13,29,0.00,3,Snow,212